Raymond, Kansas
Current Conditions -  °F | °C
As of 4:15 PM on Tuesday 25 Nov 2014 (Local Time) from KGBD Reporting Station
Scattered Clouds Scattered Clouds  
Wind Chill: 42°   Ceiling: Unl
Heat Index: 48°   Visibility: 10mi
Dew Point: 19°   Wind: 17mph
Humidity: 32%   Direction: 190°S
Pressure: 29.98"   Gusts: NA
Location:  38.28°N, 98.42°W
Report Text: KGBD 252215Z AUTO 19015KT 10SM SCT110 09/M07 A2998 RMK AO1
Loading
Personal Weather Stations






























Interactive Weather Map New forecast layout! Learn more

10-Day Weather Forecast

Advertisements
Track Severe Weather on mobile